Time;durP1;ratioP1;P1;durP2;ratioP2;P2;SDS_P1;SDS_P2;PMS_P1;PMS_P2;Temp;Humidity;BMP_temperature;BMP_pressure;BME280_temperature;BME280_humidity;BME280_pressure;Samples;Min_cycle;Max_cycle;Signal;HPM_P1;HPM_P2
2022/03/08 00:01:56;;;;;;;;;;;;;;;17.13;47.07;102511.75;4964249;28;19914;-81
2022/03/08 00:04:24;;;;;;;;;;;;;;;17.13;46.97;102505.66;4968597;28;20340;-80
2022/03/08 00:06:49;;;;;;;;;;;;;;;17.12;47.19;102503.94;4953183;28;19926;-81
2022/03/08 00:09:14;;;;;;;;;;;;;;;17.13;46.90;102497.88;4949432;29;19918;-81
2022/03/08 00:11:40;;;;;;;;;;;;;;;17.12;47.22;102504.81;4933615;29;20366;-80
2022/03/08 00:14:05;;;;;;;;;;;;;;;17.12;46.48;102504.81;4932731;29;19923;-80
2022/03/08 00:16:30;;;;;;;;;;;;;;;17.12;46.63;102503.94;4946231;28;20332;-80
2022/03/08 00:18:55;;;;;;;;;;;;;;;17.11;46.28;102499.56;4951907;28;19924;-80
2022/03/08 00:21:21;;;;;;;;;;;;;;;17.11;46.85;102497.81;4934706;28;19918;-80
2022/03/08 00:23:47;;;;;;;;;;;;;;;17.10;47.36;102493.50;4932348;29;19922;-80
2022/03/08 00:26:12;;;;;;;;;;;;;;;17.10;47.24;102490.88;4947521;29;19918;-80
2022/03/08 00:28:37;;;;;;;;;;;;;;;17.09;46.35;102481.31;4933300;29;19981;-80
2022/03/08 00:31:03;;;;;;;;;;;;;;;17.09;46.53;102473.50;4941694;28;19944;-80
2022/03/08 00:33:28;;;;;;;;;;;;;;;17.10;47.29;102479.63;4952237;29;19976;-81
2022/03/08 00:35:53;;;;;;;;;;;;;;;17.08;46.19;102470.91;4947859;28;19969;-81
2022/03/08 00:38:19;;;;;;;;;;;;;;;17.08;47.01;102465.69;4947347;29;19985;-81
2022/03/08 00:40:45;;;;;;;;;;;;;;;17.07;46.80;102467.41;4942451;28;19922;-81
2022/03/08 00:43:10;;;;;;;;;;;;;;;17.06;46.68;102463.94;4956255;29;19926;-81
2022/03/08 00:45:35;;;;;;;;;;;;;;;17.06;46.85;102469.13;4957773;28;19918;-80
2022/03/08 00:48:01;;;;;;;;;;;;;;;17.05;46.67;102462.19;4959016;28;19919;-80
2022/03/08 00:50:28;;;;;;;;;;;;;;;17.06;46.77;102468.25;4950640;28;19926;-80
2022/03/08 00:52:54;;;;;;;;;;;;;;;17.06;46.17;102468.25;4960231;28;19918;-80
2022/03/08 00:55:20;;;;;;;;;;;;;;;17.05;46.96;102463.94;4984541;28;19953;-80
2022/03/08 00:57:46;;;;;;;;;;;;;;;17.05;46.85;102466.53;4959642;28;19926;-80
2022/03/08 01:00:13;;;;;;;;;;;;;;;17.04;46.43;102464.75;4949085;28;19918;-80
2022/03/08 01:02:38;;;;;;;;;;;;;;;17.04;45.92;102460.44;4933336;28;19949;-80
2022/03/08 01:05:04;;;;;;;;;;;;;;;17.03;47.10;102458.69;4936989;28;19930;-80
2022/03/08 01:07:29;;;;;;;;;;;;;;;17.02;45.92;102456.91;4932151;29;19923;-80
2022/03/08 01:09:54;;;;;;;;;;;;;;;17.03;46.71;102460.41;4934783;29;19966;-80
2022/03/08 01:12:20;;;;;;;;;;;;;;;17.02;46.32;102451.72;4944544;28;19922;-80
2022/03/08 01:14:45;;;;;;;;;;;;;;;17.02;46.55;102453.44;4953255;29;19922;-80
2022/03/08 01:17:10;;;;;;;;;;;;;;;17.02;46.54;102451.72;4966029;28;19914;-80
2022/03/08 01:19:35;;;;;;;;;;;;;;;17.01;45.88;102447.38;4958653;28;19918;-80
2022/03/08 01:22:01;;;;;;;;;;;;;;;17.00;45.95;102445.59;4950537;28;19924;-80
2022/03/08 01:24:28;;;;;;;;;;;;;;;17.01;45.65;102438.72;4965746;28;19918;-80
2022/03/08 01:26:56;;;;;;;;;;;;;;;17.00;46.34;102436.94;4939449;29;20278;-80
2022/03/08 01:29:23;;;;;;;;;;;;;;;17.00;46.04;102436.94;4930310;29;19927;-80
2022/03/08 01:31:48;;;;;;;;;;;;;;;16.99;46.35;102436.06;4978714;28;19988;-80
2022/03/08 01:34:14;;;;;;;;;;;;;;;16.98;46.52;102434.28;4964881;28;20376;-80
2022/03/08 01:36:40;;;;;;;;;;;;;;;16.99;45.74;102432.59;4935488;28;20018;-80
2022/03/08 01:39:05;;;;;;;;;;;;;;;16.98;45.73;102429.09;4944596;28;19929;-80
2022/03/08 01:41:30;;;;;;;;;;;;;;;16.97;45.66;102437.75;4945995;28;19918;-80
2022/03/08 01:43:56;;;;;;;;;;;;;;;16.98;46.57;102436.91;4964162;28;19918;-80
2022/03/08 01:46:21;;;;;;;;;;;;;;;16.97;46.17;102432.56;4948919;29;19978;-80
2022/03/08 01:48:46;;;;;;;;;;;;;;;16.97;45.81;102429.97;4928096;29;19919;-80
2022/03/08 01:51:13;;;;;;;;;;;;;;;16.97;46.35;102432.56;4945661;29;19925;-80
2022/03/08 01:53:40;;;;;;;;;;;;;;;16.96;46.16;102435.13;4947197;29;19922;-80
2022/03/08 01:56:06;;;;;;;;;;;;;;;16.96;46.01;102432.53;4960704;28;19919;-80
2022/03/08 01:58:31;;;;;;;;;;;;;;;16.95;46.08;102428.19;4965593;28;19925;-80
2022/03/08 02:00:57;;;;;;;;;;;;;;;16.95;45.91;102430.78;4944625;28;19919;-80
2022/03/08 02:03:22;;;;;;;;;;;;;;;16.95;46.25;102420.38;4949044;28;20017;-80
2022/03/08 02:05:47;;;;;;;;;;;;;;;16.95;45.94;102429.06;4939542;28;19922;-80
2022/03/08 02:08:13;;;;;;;;;;;;;;;16.94;45.66;102426.41;4930359;29;19954;-80
2022/03/08 02:10:38;;;;;;;;;;;;;;;16.93;46.18;102415.16;4971563;28;20000;-80
2022/03/08 02:13:03;;;;;;;;;;;;;;;16.93;45.94;102415.16;4944205;29;20425;-80
2022/03/08 02:15:29;;;;;;;;;;;;;;;16.92;45.68;102413.41;4933323;29;19918;-80
2022/03/08 02:17:55;;;;;;;;;;;;;;;16.93;45.53;102406.47;4944985;29;19969;-80
2022/03/08 02:20:21;;;;;;;;;;;;;;;16.92;45.39;102404.72;4947499;28;19914;-80
2022/03/08 02:22:48;;;;;;;;;;;;;;;16.93;45.63;102398.69;4962993;28;19925;-80
2022/03/08 02:25:14;;;;;;;;;;;;;;;16.91;46.25;102390.84;4948165;29;19914;-80
2022/03/08 02:27:50;;;;;;;;;;;;;;;16.90;46.16;102390.81;4944075;29;19925;-80
2022/03/08 02:30:16;;;;;;;;;;;;;;;16.90;45.95;102386.50;4944299;28;19929;-80
2022/03/08 02:32:42;;;;;;;;;;;;;;;16.89;45.46;102378.66;4964189;28;19914;-80
2022/03/08 02:35:11;;;;;;;;;;;;;;;16.89;45.16;102381.25;4968288;28;19945;-80
2022/03/08 02:37:41;;;;;;;;;;;;;;;16.89;45.42;102376.06;4967923;28;20258;-80
2022/03/08 02:40:08;;;;;;;;;;;;;;;16.88;45.71;102375.19;4967327;28;20388;-80
2022/03/08 02:42:33;;;;;;;;;;;;;;;16.88;45.39;102374.31;4945095;29;20329;-80
2022/03/08 02:44:58;;;;;;;;;;;;;;;16.86;45.52;102372.56;4928832;28;19919;-80
2022/03/08 02:47:23;;;;;;;;;;;;;;;16.86;46.21;102367.34;4941044;28;19926;-81
2022/03/08 02:49:49;;;;;;;;;;;;;;;16.86;45.76;102363.88;4963608;28;19918;-80
2022/03/08 02:52:14;;;;;;;;;;;;;;;16.86;45.40;102362.16;4963547;28;19918;-80
2022/03/08 02:54:39;;;;;;;;;;;;;;;16.86;44.90;102358.69;4944948;29;19954;-80
2022/03/08 02:57:05;;;;;;;;;;;;;;;16.85;45.29;102351.72;4943479;29;19977;-80
2022/03/08 02:59:30;;;;;;;;;;;;;;;16.85;45.49;102356.91;4943387;29;19926;-80
2022/03/08 03:01:55;;;;;;;;;;;;;;;16.85;45.82;102351.72;4961571;28;19945;-80
2022/03/08 03:04:20;;;;;;;;;;;;;;;16.84;45.49;102342.19;4928532;29;19926;-80
2022/03/08 03:06:46;;;;;;;;;;;;;;;16.84;45.33;102339.59;4934253;28;19919;-80
2022/03/08 03:09:11;;;;;;;;;;;;;;;16.83;45.16;102336.13;4946734;28;19929;-80
2022/03/08 03:11:37;;;;;;;;;;;;;;;16.83;45.58;102335.22;4962945;28;19918;-80
2022/03/08 03:14:02;;;;;;;;;;;;;;;16.83;45.37;102343.00;4945232;28;19922;-80
2022/03/08 03:16:27;;;;;;;;;;;;;;;16.83;45.51;102343.00;4935904;28;19929;-80
2022/03/08 03:18:53;;;;;;;;;;;;;;;16.83;45.23;102345.63;4930099;29;19918;-80
2022/03/08 03:21:18;;;;;;;;;;;;;;;16.81;45.86;102332.59;4936040;28;20365;-80
2022/03/08 03:23:43;;;;;;;;;;;;;;;16.80;45.05;102330.84;4945184;28;20032;-80
2022/03/08 03:26:08;;;;;;;;;;;;;;;16.81;44.99;102334.31;4939771;29;19918;-80
2022/03/08 03:28:34;;;;;;;;;;;;;;;16.80;45.32;102333.44;4948059;29;19922;-80
2022/03/08 03:30:59;;;;;;;;;;;;;;;16.80;44.85;102330.84;4953027;28;19929;-80
2022/03/08 03:33:24;;;;;;;;;;;;;;;16.79;45.30;102323.00;4931107;29;19972;-80
2022/03/08 03:35:50;;;;;;;;;;;;;;;16.79;45.77;102325.59;4956807;28;20345;-80
2022/03/08 03:38:15;;;;;;;;;;;;;;;16.78;45.03;102316.91;4964317;28;19956;-80
2022/03/08 03:40:40;;;;;;;;;;;;;;;16.78;45.43;102316.91;4963552;28;19918;-81
2022/03/08 03:43:05;;;;;;;;;;;;;;;16.77;44.89;102317.78;4947671;28;19945;-80
2022/03/08 03:45:31;;;;;;;;;;;;;;;16.78;45.31;102321.25;4963403;28;19925;-80
2022/03/08 03:47:56;;;;;;;;;;;;;;;16.77;45.59;102325.56;4949163;28;19918;-81
2022/03/08 03:50:21;;;;;;;;;;;;;;;16.77;45.51;102327.31;4963048;28;19937;-80
2022/03/08 03:52:46;;;;;;;;;;;;;;;16.77;44.77;102327.31;4949810;29;19914;-80
2022/03/08 03:55:13;;;;;;;;;;;;;;;16.77;44.87;102316.91;4962568;28;19918;-80
2022/03/08 03:57:38;;;;;;;;;;;;;;;16.77;45.01;102328.16;4969312;28;20266;-80
2022/03/08 04:00:05;;;;;;;;;;;;;;;16.77;45.27;102319.50;4952316;28;19926;-79
2022/03/08 04:02:30;;;;;;;;;;;;;;;16.75;44.90;102319.47;4964889;28;20284;-80
2022/03/08 04:04:56;;;;;;;;;;;;;;;16.74;44.79;102322.03;4931202;29;19978;-80
2022/03/08 04:07:21;;;;;;;;;;;;;;;16.75;44.50;102326.41;4929358;29;20274;-80
2022/03/08 04:09:46;;;;;;;;;;;;;;;16.74;44.90;102316.84;4929077;29;19972;-80
2022/03/08 04:12:11;;;;;;;;;;;;;;;16.74;45.02;102315.09;4928942;29;20266;-80
2022/03/08 04:14:37;;;;;;;;;;;;;;;16.74;45.38;102314.22;4929630;29;20365;-80
2022/03/08 04:17:02;;;;;;;;;;;;;;;16.73;45.29;102315.09;4943116;29;19984;-80
2022/03/08 04:19:27;;;;;;;;;;;;;;;16.72;44.72;102311.59;4927805;29;20285;-80
2022/03/08 04:21:53;;;;;;;;;;;;;;;16.72;45.09;102309.00;4927958;29;19925;-80
2022/03/08 04:24:18;;;;;;;;;;;;;;;16.72;44.67;102318.53;4943877;28;21361;-80
2022/03/08 04:26:43;;;;;;;;;;;;;;;16.72;44.65;102316.78;4943291;29;20361;-80
2022/03/08 04:29:09;;;;;;;;;;;;;;;16.71;44.90;102317.66;4926238;29;19934;-80
2022/03/08 04:31:34;;;;;;;;;;;;;;;16.70;45.13;102318.53;4927894;29;20366;-80
2022/03/08 04:33:59;;;;;;;;;;;;;;;16.70;45.15;102312.41;4926664;28;20032;-80
2022/03/08 04:36:25;;;;;;;;;;;;;;;16.69;44.78;102311.56;4944537;29;19923;-80
2022/03/08 04:38:50;;;;;;;;;;;;;;;16.69;44.23;102311.56;4929611;29;19918;-80
2022/03/08 04:41:15;;;;;;;;;;;;;;;16.69;45.27;102311.56;4929948;29;20441;-80
2022/03/08 04:43:40;;;;;;;;;;;;;;;16.67;44.69;102306.31;4930267;29;20377;-80
2022/03/08 04:46:05;;;;;;;;;;;;;;;16.67;44.85;102311.53;4930344;29;19922;-80
2022/03/08 04:48:31;;;;;;;;;;;;;;;16.69;44.29;102308.09;4933384;28;19929;-80
2022/03/08 04:50:56;;;;;;;;;;;;;;;16.68;44.63;102312.41;4956263;29;19946;-80
2022/03/08 04:53:21;;;;;;;;;;;;;;;16.67;44.38;102314.13;4929011;29;19922;-80
2022/03/08 04:55:47;;;;;;;;;;;;;;;16.67;44.60;102308.06;4928643;29;19922;-80
2022/03/08 04:58:12;;;;;;;;;;;;;;;16.66;44.50;102309.78;4950656;29;19923;-80
2022/03/08 05:00:37;;;;;;;;;;;;;;;16.66;44.63;102304.59;4964808;28;20001;-80
2022/03/08 05:03:02;;;;;;;;;;;;;;;16.64;44.42;102301.09;4969583;28;19915;-79
2022/03/08 05:05:31;;;;;;;;;;;;;;;16.65;45.08;102297.63;4950040;28;19973;-79
2022/03/08 05:07:56;;;;;;;;;;;;;;;16.64;44.42;102293.28;4966445;28;19914;-79
2022/03/08 05:10:22;;;;;;;;;;;;;;;16.64;44.71;102292.41;4949101;28;20367;-80
2022/03/08 05:12:47;;;;;;;;;;;;;;;16.65;44.26;102295.00;4947127;28;19972;-79
2022/03/08 05:15:12;;;;;;;;;;;;;;;16.64;44.36;102289.81;4945946;28;19976;-79
2022/03/08 05:17:37;;;;;;;;;;;;;;;16.63;44.63;102288.91;4962039;28;20013;-79
2022/03/08 05:20:04;;;;;;;;;;;;;;;16.63;44.27;102291.50;4941660;28;19918;-79
2022/03/08 05:22:29;;;;;;;;;;;;;;;16.63;44.88;102282.84;4956063;29;19928;-81
2022/03/08 05:24:54;;;;;;;;;;;;;;;16.62;44.12;102281.13;4936571;28;19949;-81
2022/03/08 05:27:20;;;;;;;;;;;;;;;16.61;44.41;102280.25;4950523;28;19922;-79
2022/03/08 05:29:45;;;;;;;;;;;;;;;16.60;44.40;102273.28;4964273;28;19950;-80
2022/03/08 05:32:10;;;;;;;;;;;;;;;16.61;44.11;102288.03;4972816;28;20379;-79
2022/03/08 05:34:35;;;;;;;;;;;;;;;16.62;44.06;102286.31;4929333;29;20416;-81
2022/03/08 05:37:01;;;;;;;;;;;;;;;16.60;44.33;102282.81;4936499;28;19918;-80
2022/03/08 05:39:26;;;;;;;;;;;;;;;16.59;44.27;102281.94;4981418;28;19914;-80
2022/03/08 05:41:52;;;;;;;;;;;;;;;16.60;44.14;102280.22;4949169;28;19922;-79
2022/03/08 05:44:17;;;;;;;;;;;;;;;16.58;44.73;102277.56;4964171;28;19942;-79
2022/03/08 05:46:43;;;;;;;;;;;;;;;16.59;44.13;102281.03;4965409;28;19957;-80
2022/03/08 05:49:08;;;;;;;;;;;;;;;16.59;44.33;102287.13;4957925;28;19918;-79
2022/03/08 05:51:33;;;;;;;;;;;;;;;16.58;44.00;102287.09;4960743;29;19923;-79
2022/03/08 05:53:59;;;;;;;;;;;;;;;16.56;44.17;102271.47;4960846;28;20460;-79
2022/03/08 05:59:27;;;;;;;;;;;;;;;16.58;44.37;102274.97;4976305;28;19921;-80
2022/03/08 06:01:54;;;;;;;;;;;;;;;16.59;44.96;102270.66;4965453;28;19922;-82
2022/03/08 06:04:38;;;;;;;;;;;;;;;16.58;45.38;102274.97;4982873;28;19922;-81
2022/03/08 06:10:08;;;;;;;;;;;;;;;16.60;45.59;102275.00;4978140;28;19925;-80
2022/03/08 06:12:33;;;;;;;;;;;;;;;16.59;45.46;102268.94;4965840;28;19922;-78
2022/03/08 06:14:59;;;;;;;;;;;;;;;16.61;45.58;102272.44;4949273;28;19933;-80
2022/03/08 06:17:26;;;;;;;;;;;;;;;16.61;45.78;102275.06;4961033;29;19926;-80
2022/03/08 06:19:51;;;;;;;;;;;;;;;16.61;45.61;102275.06;4952686;28;20373;-80
2022/03/08 06:22:17;;;;;;;;;;;;;;;16.63;45.68;102282.84;4960398;28;19957;-83
2022/03/08 06:27:55;;;;;;;;;;;;;;;16.64;45.97;102284.63;4995295;28;19929;-82
2022/03/08 06:30:27;;;;;;;;;;;;;;;16.64;45.85;102285.50;4990683;28;19973;-82
2022/03/08 06:32:53;;;;;;;;;;;;;;;16.65;45.67;102289.81;4976012;28;19945;-80
2022/03/08 06:35:19;;;;;;;;;;;;;;;16.64;45.81;102282.88;4977876;28;19926;-81
2022/03/08 06:37:44;;;;;;;;;;;;;;;16.67;45.96;102287.25;4951729;28;19952;-79
2022/03/08 06:40:10;;;;;;;;;;;;;;;16.67;45.81;102295.91;4967329;28;19919;-79
2022/03/08 06:42:36;;;;;;;;;;;;;;;16.69;46.13;102292.50;4981855;28;20254;-79
2022/03/08 06:45:03;;;;;;;;;;;;;;;16.70;45.61;102289.03;4968092;28;20364;-79
2022/03/08 06:47:28;;;;;;;;;;;;;;;16.69;46.07;102285.56;4974377;28;19981;-82
2022/03/08 06:49:53;;;;;;;;;;;;;;;16.70;45.82;102279.53;4973663;28;19977;-79
2022/03/08 06:52:18;;;;;;;;;;;;;;;16.71;46.22;102270.00;4955449;28;19969;-79
2022/03/08 06:54:43;;;;;;;;;;;;;;;16.71;45.91;102275.19;4950265;28;19929;-79
2022/03/08 06:57:09;;;;;;;;;;;;;;;16.71;45.91;102268.28;4965141;28;19969;-79
2022/03/08 06:59:34;;;;;;;;;;;;;;;16.73;45.93;102270.91;4964647;28;19910;-79
2022/03/08 07:01:59;;;;;;;;;;;;;;;16.73;45.97;102261.38;4964820;28;19918;-79
2022/03/08 07:04:25;;;;;;;;;;;;;;;16.74;45.73;102272.63;4979689;28;19914;-79
2022/03/08 07:06:50;;;;;;;;;;;;;;;16.75;46.05;102271.81;4946400;28;19918;-79
2022/03/08 07:09:16;;;;;;;;;;;;;;;16.75;46.00;102272.69;4961453;28;19914;-79
2022/03/08 07:11:41;;;;;;;;;;;;;;;16.76;45.89;102274.41;4965561;28;19918;-80
2022/03/08 07:14:07;;;;;;;;;;;;;;;16.77;45.83;102273.56;4966394;28;19940;-79
2022/03/08 07:16:33;;;;;;;;;;;;;;;16.78;46.13;102277.91;4981570;28;20364;-79
2022/03/08 07:18:58;;;;;;;;;;;;;;;16.79;45.70;102278.81;4963746;28;19986;-79
2022/03/08 07:21:23;;;;;;;;;;;;;;;16.80;45.91;102278.84;4963329;28;19925;-79
2022/03/08 07:23:49;;;;;;;;;;;;;;;16.80;45.63;102284.03;4979508;28;19922;-79
2022/03/08 07:26:14;;;;;;;;;;;;;;;16.81;45.78;102285.81;4961964;28;19918;-79
2022/03/08 07:28:39;;;;;;;;;;;;;;;16.82;45.69;102278.88;4979057;28;19918;-78
2022/03/08 07:31:05;;;;;;;;;;;;;;;16.82;45.68;102276.28;4960924;28;20047;-79
2022/03/08 07:33:30;;;;;;;;;;;;;;;16.86;45.43;102275.47;4961865;28;19957;-79
2022/03/08 07:35:55;;;;;;;;;;;;;;;16.93;45.28;102279.94;4963282;28;19914;-79
2022/03/08 07:38:21;;;;;;;;;;;;;;;16.90;45.24;102279.00;4946481;28;20304;-79
2022/03/08 07:40:46;;;;;;;;;;;;;;;16.88;45.20;102272.91;4961262;28;19914;-79
2022/03/08 07:43:11;;;;;;;;;;;;;;;16.87;45.34;102279.81;4960236;28;20417;-79
2022/03/08 07:45:36;;;;;;;;;;;;;;;16.87;45.36;102277.22;4945417;28;19918;-79
2022/03/08 07:48:04;;;;;;;;;;;;;;;16.88;44.93;102279.00;4946360;28;19919;-79
2022/03/08 07:50:30;;;;;;;;;;;;;;;16.86;45.03;102284.16;4961599;28;19986;-78
2022/03/08 07:52:56;;;;;;;;;;;;;;;16.86;44.86;102281.56;4963045;28;19914;-77
2022/03/08 07:55:21;;;;;;;;;;;;;;;16.94;45.05;102286.91;4944567;28;19961;-79
2022/03/08 07:57:46;;;;;;;;;;;;;;;17.50;43.46;102280.78;4943956;28;19918;-79
2022/03/08 08:00:12;;;;;;;;;;;;;;;17.84;42.84;102286.47;4944407;28;19919;-79
2022/03/08 08:02:37;;;;;;;;;;;;;;;17.99;42.72;102275.38;4945460;28;19918;-79
2022/03/08 08:05:03;;;;;;;;;;;;;;;18.09;42.58;102275.50;4944545;28;20222;-78
2022/03/08 08:07:28;;;;;;;;;;;;;;;18.22;42.46;102275.59;4958937;28;19918;-78
2022/03/08 08:09:53;;;;;;;;;;;;;;;18.24;42.58;102276.50;4977304;28;19922;-78
2022/03/08 08:12:18;;;;;;;;;;;;;;;18.26;42.69;102274.78;4947214;28;20385;-78
2022/03/08 08:14:44;;;;;;;;;;;;;;;18.27;42.68;102269.59;4946970;28;20036;-79
2022/03/08 08:17:09;;;;;;;;;;;;;;;18.29;42.62;102280.91;4947011;28;19922;-78
2022/03/08 08:19:34;;;;;;;;;;;;;;;18.28;42.88;102271.31;4947373;28;19914;-78
2022/03/08 08:21:59;;;;;;;;;;;;;;;18.29;42.98;102278.31;4946729;28;20376;-78
2022/03/08 08:24:25;;;;;;;;;;;;;;;18.32;42.89;102279.19;4980306;28;20365;-78
2022/03/08 08:26:50;;;;;;;;;;;;;;;18.29;42.92;102272.19;4947126;28;19934;-78
2022/03/08 08:29:15;;;;;;;;;;;;;;;18.25;42.82;102263.50;4962345;28;20006;-78
2022/03/08 08:31:40;;;;;;;;;;;;;;;18.27;42.89;102272.19;4961955;28;20381;-78
2022/03/08 08:34:06;;;;;;;;;;;;;;;18.26;42.72;102278.25;4946570;28;19922;-78
2022/03/08 08:36:31;;;;;;;;;;;;;;;18.24;42.81;102269.53;4979633;28;19969;-78
2022/03/08 08:38:56;;;;;;;;;;;;;;;18.22;42.90;102263.44;4948604;28;19922;-80
2022/03/08 08:41:22;;;;;;;;;;;;;;;18.21;43.04;102269.53;4947951;28;19918;-80
2022/03/08 08:43:47;;;;;;;;;;;;;;;18.19;43.01;102268.63;4963150;28;19973;-78
2022/03/08 08:46:12;;;;;;;;;;;;;;;18.19;42.74;102268.63;4971669;28;20012;-79
2022/03/08 08:48:38;;;;;;;;;;;;;;;18.14;42.97;102257.31;4963689;28;19921;-80
2022/03/08 08:51:03;;;;;;;;;;;;;;;18.12;43.09;102261.63;4966891;28;19985;-80
2022/03/08 08:53:28;;;;;;;;;;;;;;;18.09;43.20;102256.34;4964865;28;19922;-80
2022/03/08 08:55:53;;;;;;;;;;;;;;;18.07;43.20;102260.66;4952651;28;19925;-81
2022/03/08 08:58:19;;;;;;;;;;;;;;;18.04;43.07;102255.44;4976656;28;19964;-81
2022/03/08 09:00:44;;;;;;;;;;;;;;;18.04;43.07;102252.84;4959682;28;19919;-81
2022/03/08 09:03:14;;;;;;;;;;;;;;;18.01;43.13;102250.22;4959290;28;19922;-81
2022/03/08 09:05:39;;;;;;;;;;;;;;;17.98;42.93;102252.75;4973961;28;19954;-81
2022/03/08 09:08:05;;;;;;;;;;;;;;;17.97;43.18;102251.03;4955409;28;19918;-78
2022/03/08 09:10:30;;;;;;;;;;;;;;;17.94;43.02;102259.66;4954225;28;20292;-80
2022/03/08 09:12:55;;;;;;;;;;;;;;;17.91;43.06;102249.22;4952278;28;19911;-79
2022/03/08 09:15:21;;;;;;;;;;;;;;;17.89;43.20;102251.78;4962207;28;19961;-78
2022/03/08 09:17:46;;;;;;;;;;;;;;;17.87;43.14;102247.44;4961734;28;19921;-81
2022/03/08 09:20:13;;;;;;;;;;;;;;;17.83;43.11;102246.53;4961919;28;19914;-78
2022/03/08 09:22:39;;;;;;;;;;;;;;;17.83;42.96;102240.44;4944955;28;19918;-79
2022/03/08 09:25:04;;;;;;;;;;;;;;;17.79;42.72;102242.13;4966349;28;20353;-81
2022/03/08 09:27:30;;;;;;;;;;;;;;;17.77;42.74;102236.00;4951917;28;19922;-79
2022/03/08 09:29:55;;;;;;;;;;;;;;;17.77;42.49;102241.22;4945292;28;20257;-79
2022/03/08 09:32:21;;;;;;;;;;;;;;;17.73;42.52;102243.78;4960892;28;19933;-79
2022/03/08 09:34:46;;;;;;;;;;;;;;;17.70;42.38;102234.16;4945434;28;19929;-78
2022/03/08 09:37:11;;;;;;;;;;;;;;;17.67;42.05;102236.75;4961374;28;20304;-79
2022/03/08 09:39:36;;;;;;;;;;;;;;;17.64;42.20;102234.97;4962066;28;19915;-79
2022/03/08 09:42:02;;;;;;;;;;;;;;;17.61;42.83;102237.53;4951105;28;19918;-79
2022/03/08 09:44:28;;;;;;;;;;;;;;;17.60;42.16;102232.31;4967932;28;19938;-79
2022/03/08 09:46:54;;;;;;;;;;;;;;;17.58;42.59;102234.03;4967655;28;19914;-79
2022/03/08 09:49:19;;;;;;;;;;;;;;;17.57;42.79;102234.88;4948697;28;20008;-79
2022/03/08 09:51:45;;;;;;;;;;;;;;;17.54;42.43;102229.63;4963672;28;19968;-79
2022/03/08 09:54:10;;;;;;;;;;;;;;;17.52;42.70;102221.81;4963413;28;19930;-79
2022/03/08 09:56:35;;;;;;;;;;;;;;;17.49;42.69;102229.59;4962869;28;20284;-78
2022/03/08 09:59:01;;;;;;;;;;;;;;;17.49;42.18;102216.56;4946417;28;20392;-78
2022/03/08 10:01:27;;;;;;;;;;;;;;;17.49;42.13;102226.97;4962809;28;20335;-78
2022/03/08 10:03:52;;;;;;;;;;;;;;;17.47;42.62;102223.47;4980101;28;19914;-78
2022/03/08 10:06:18;;;;;;;;;;;;;;;17.45;42.40;102217.38;4962398;28;20009;-79
2022/03/08 10:08:43;;;;;;;;;;;;;;;17.45;42.00;102209.56;4962067;28;19954;-79
2022/03/08 10:11:11;;;;;;;;;;;;;;;17.43;42.26;102206.06;4961346;28;20404;-79
2022/03/08 10:13:41;;;;;;;;;;;;;;;17.42;42.46;102207.81;4978262;28;19918;-79
2022/03/08 10:16:11;;;;;;;;;;;;;;;17.41;42.09;102213.00;4960841;28;19915;-79
2022/03/08 10:18:38;;;;;;;;;;;;;;;17.41;42.37;102207.78;4960108;28;19914;-78
2022/03/08 10:21:04;;;;;;;;;;;;;;;17.40;42.09;102208.66;4960072;28;19922;-78
2022/03/08 10:23:38;;;;;;;;;;;;;;;17.39;42.04;102212.09;4960325;28;19914;-78
2022/03/08 10:26:04;;;;;;;;;;;;;;;17.38;41.88;102208.63;4960475;28;20322;-78
2022/03/08 10:28:30;;;;;;;;;;;;;;;17.36;42.39;102205.13;4961801;28;19918;-78
2022/03/08 10:30:55;;;;;;;;;;;;;;;17.36;42.01;102197.31;4944248;28;19969;-78
2022/03/08 10:33:32;;;;;;;;;;;;;;;17.34;42.57;102190.34;4963326;28;20376;-79
2022/03/08 10:35:57;;;;;;;;;;;;;;;17.34;41.96;102191.22;4968751;28;19914;-79
2022/03/08 10:38:32;;;;;;;;;;;;;;;17.32;42.48;102185.13;5057487;23;19964;-82
2022/03/08 10:40:58;;;;;;;;;;;;;;;17.32;42.78;102179.91;4960015;28;19922;-78
2022/03/08 10:43:27;;;;;;;;;;;;;;;17.31;42.89;102178.19;4934616;28;19903;-82
2022/03/08 10:45:55;;;;;;;;;;;;;;;17.31;42.80;102178.19;4929891;28;20289;-80
2022/03/08 10:48:25;;;;;;;;;;;;;;;17.31;42.92;102165.19;4941823;29;20254;-79
2022/03/08 10:50:50;;;;;;;;;;;;;;;17.31;43.10;102167.78;4942300;29;19914;-80
2022/03/08 10:53:15;;;;;;;;;;;;;;;17.33;43.19;102170.38;4942226;28;19970;-80
2022/03/08 10:55:48;;;;;;;;;;;;;;;17.32;42.95;102169.50;4941824;28;19957;-80
2022/03/08 10:58:14;;;;;;;;;;;;;;;17.32;42.79;102169.50;4941664;28;20276;-80
2022/03/08 11:00:50;;;;;;;;;;;;;;;17.32;43.01;102172.13;4959742;28;19922;-80
2022/03/08 11:03:16;;;;;;;;;;;;;;;17.32;43.11;102166.91;4942403;28;19921;-80
2022/03/08 11:05:43;;;;;;;;;;;;;;;17.32;43.19;102159.09;4941217;29;20262;-79
2022/03/08 11:08:09;;;;;;;;;;;;;;;17.32;43.18;102153.91;4940821;28;19915;-80
2022/03/08 11:10:35;;;;;;;;;;;;;;;17.33;43.24;102163.44;4940626;28;19915;-79
2022/03/08 11:13:00;;;;;;;;;;;;;;;17.33;42.96;102147.81;4928523;28;19962;-79
2022/03/08 11:15:27;;;;;;;;;;;;;;;17.33;42.96;102147.81;4972076;28;19922;-81
2022/03/08 11:17:53;;;;;;;;;;;;;;;17.34;43.17;102144.38;4963850;28;19950;-78
2022/03/08 11:20:20;;;;;;;;;;;;;;;17.35;43.03;102134.84;4960984;28;19919;-78
2022/03/08 11:22:46;;;;;;;;;;;;;;;17.34;43.28;102136.56;4940746;29;19914;-78
2022/03/08 11:25:14;;;;;;;;;;;;;;;17.34;43.10;102126.19;4941576;28;20258;-77
2022/03/08 11:27:39;;;;;;;;;;;;;;;17.35;43.17;102129.63;4940281;29;19914;-78
2022/03/08 11:30:05;;;;;;;;;;;;;;;17.37;42.99;102133.13;4940513;28;19915;-78
2022/03/08 11:32:51;;;;;;;;;;;;;;;17.36;43.09;102132.28;4940259;28;20384;-78
2022/03/08 11:35:40;;;;;;;;;;;;;;;17.37;43.01;102128.78;4956851;28;19977;-78
2022/03/08 11:38:06;;;;;;;;;;;;;;;17.38;43.05;102122.75;4957826;28;20017;-78
2022/03/08 11:40:32;;;;;;;;;;;;;;;17.38;42.97;102127.09;4940978;29;19953;-78
2022/03/08 11:43:03;;;;;;;;;;;;;;;17.38;42.91;102127.97;4940241;29;19914;-78
2022/03/08 11:45:29;;;;;;;;;;;;;;;17.38;43.01;102117.56;4943474;28;20005;-77
2022/03/08 11:47:56;;;;;;;;;;;;;;;17.42;42.85;102114.13;4946993;28;19954;-77
2022/03/08 11:50:23;;;;;;;;;;;;;;;17.58;42.85;102114.31;4943749;28;19922;-77
2022/03/08 11:53:06;;;;;;;;;;;;;;;17.70;43.00;102109.19;4943578;28;19961;-76
2022/03/08 11:55:56;;;;;;;;;;;;;;;17.78;42.65;102115.38;4952845;29;19910;-83
2022/03/08 12:00:59;;;;;;;;;;;;;;;17.83;42.68;102102.44;4978831;29;19953;-83
2022/03/08 12:03:24;;;;;;;;;;;;;;;17.84;42.65;102101.59;4981403;28;19923;-84
2022/03/08 12:06:00;;;;;;;;;;;;;;;17.82;42.58;102101.56;4995674;28;20029;-82
2022/03/08 12:08:28;;;;;;;;;;;;;;;17.83;42.83;102102.44;5397641;23;19933;-81
2022/03/08 12:10:57;;;;;;;;;;;;;;;17.84;42.94;102101.59;4990931;28;19961;-83
2022/03/08 12:13:26;;;;;;;;;;;;;;;17.84;42.98;102089.44;5030634;23;19950;-81
2022/03/08 12:16:07;;;;;;;;;;;;;;;17.80;43.16;102097.16;4973881;28;19972;-81
2022/03/08 12:18:55;;;;;;;;;;;;;;;17.76;42.99;102092.78;4970609;28;19947;-81
2022/03/08 12:21:20;;;;;;;;;;;;;;;17.75;43.20;102091.91;4982817;28;19945;-80
2022/03/08 12:23:52;;;;;;;;;;;;;;;17.76;42.72;102087.56;4992128;28;20388;-81
2022/03/08 12:26:27;;;;;;;;;;;;;;;17.76;42.66;102085.84;4979899;28;19914;-81
2022/03/08 12:29:15;;;;;;;;;;;;;;;17.77;42.74;102084.09;4979744;28;19918;-81
2022/03/08 12:31:55;;;;;;;;;;;;;;;17.77;42.87;102071.97;4979744;28;19914;-81
2022/03/08 12:34:34;;;;;;;;;;;;;;;17.76;42.52;102065.00;4974430;28;19964;-81
2022/03/08 12:37:06;;;;;;;;;;;;;;;17.77;42.48;102069.38;4977418;28;19969;-82
2022/03/08 12:39:50;;;;;;;;;;;;;;;17.77;42.60;102066.78;4980389;28;20447;-82
2022/03/08 12:42:17;;;;;;;;;;;;;;;17.75;42.67;102068.50;4980791;28;19894;-82
2022/03/08 12:44:52;;;;;;;;;;;;;;;17.76;42.63;102062.41;4979631;28;19918;-81